KLM1426 LFLL-EHAM
Flight info
| Callsign | KLM1426 |
|---|---|
| Flight time | N/A |
| Altitude | 38000 |
| Route | BUSIL DCT AMORO DCT MOMIL DCT BAGBI DCT SIZZA DCT LAULY DCT BRY DCT CLM DCT NURMO DCT LUMIL DCT BELOB UY873 DENUT |
| Aircraft | E190/M-SDE2E3FGIJ1RWY/LB1 |
Departure
| Time | 2026-05-07 14:47 |
|---|---|
| Airport | Lyon Saint-Exupéry Airport (LFLL) |
Arrival
| Time | N/A |
|---|---|
| Airport | Amsterdam Airport Schiphol (EHAM) |
| Time | Latitude | Longitude | Altitude | Speed | Heading |
|---|---|---|---|---|---|
| 2026-05-07 14:21 | 45.71553 | 5.07730 | 829 ft | 0 kts | 14° |
| 2026-05-07 14:38 | 45.71550 | 5.07730 | 829 ft | 2 kts | 14° |
| 2026-05-07 14:38 | 45.71536 | 5.07724 | 829 ft | 2 kts | 14° |
| 2026-05-07 14:38 | 45.71521 | 5.07719 | 829 ft | 2 kts | 14° |
| 2026-05-07 14:38 | 45.71508 | 5.07710 | 829 ft | 2 kts | 48° |
| 2026-05-07 14:39 | 45.71502 | 5.07691 | 829 ft | 2 kts | 85° |
| 2026-05-07 14:39 | 45.71503 | 5.07676 | 829 ft | 0 kts | 105° |
| 2026-05-07 14:42 | 45.71503 | 5.07677 | 829 ft | 0 kts | 105° |
| 2026-05-07 14:43 | 45.71498 | 5.07703 | 829 ft | 5 kts | 105° |
| 2026-05-07 14:43 | 45.71484 | 5.07780 | 829 ft | 10 kts | 109° |
| 2026-05-07 14:43 | 45.71448 | 5.07897 | 829 ft | 15 kts | 101° |
| 2026-05-07 14:43 | 45.71459 | 5.08036 | 829 ft | 12 kts | 103° |
| 2026-05-07 14:44 | 45.71439 | 5.08164 | 829 ft | 13 kts | 104° |
| 2026-05-07 14:44 | 45.71417 | 5.08292 | 829 ft | 13 kts | 99° |
| 2026-05-07 14:44 | 45.71421 | 5.08428 | 829 ft | 13 kts | 83° |
| 2026-05-07 14:44 | 45.71376 | 5.08529 | 829 ft | 13 kts | 172° |
| 2026-05-07 14:45 | 45.71283 | 5.08540 | 829 ft | 13 kts | 174° |
| 2026-05-07 14:45 | 45.71186 | 5.08557 | 829 ft | 14 kts | 163° |
| 2026-05-07 14:45 | 45.71125 | 5.08659 | 829 ft | 14 kts | 110° |
| 2026-05-07 14:45 | 45.71102 | 5.08794 | 829 ft | 13 kts | 105° |
| 2026-05-07 14:46 | 45.71091 | 5.08919 | 829 ft | 12 kts | 86° |
| 2026-05-07 14:46 | 45.71111 | 5.09002 | 829 ft | 7 kts | 31° |
| 2026-05-07 14:46 | 45.71159 | 5.09018 | 830 ft | 7 kts | 1° |
| 2026-05-07 14:46 | 45.71294 | 5.09004 | 829 ft | 47 kts | 353° |
| 2026-05-07 14:47 | 45.71852 | 5.08933 | 830 ft | 112 kts | 355° |
| 2026-05-07 14:47 | 45.72805 | 5.08820 | 854 ft | 155 kts | 354° |
| 2026-05-07 14:47 | 45.73894 | 5.08688 | 1282 ft | 162 kts | 355° |
| 2026-05-07 14:47 | 45.74997 | 5.08530 | 1937 ft | 159 kts | 357° |
| 2026-05-07 14:48 | 45.76122 | 5.08402 | 2495 ft | 175 kts | 355° |
| 2026-05-07 14:48 | 45.77426 | 5.08250 | 2916 ft | 204 kts | 356° |
| 2026-05-07 14:48 | 45.78938 | 5.08071 | 3502 ft | 228 kts | 355° |
| 2026-05-07 14:48 | 45.80516 | 5.07880 | 4367 ft | 238 kts | 356° |
| 2026-05-07 14:49 | 45.82226 | 5.07674 | 5103 ft | 255 kts | 356° |
| 2026-05-07 14:49 | 45.84027 | 5.07454 | 5850 ft | 269 kts | 356° |
| 2026-05-07 14:49 | 45.85896 | 5.07226 | 6758 ft | 277 kts | 356° |
| 2026-05-07 14:49 | 45.87771 | 5.06997 | 7545 ft | 267 kts | 355° |
| 2026-05-07 14:50 | 45.89638 | 5.06768 | 7878 ft | 269 kts | 355° |
| 2026-05-07 14:50 | 45.91510 | 5.06539 | 8057 ft | 277 kts | 355° |
| 2026-05-07 14:50 | 45.93367 | 5.05789 | 8230 ft | 283 kts | 330° |
| 2026-05-07 14:50 | 45.95060 | 5.04266 | 8531 ft | 285 kts | 327° |
| 2026-05-07 14:51 | 45.96728 | 5.02724 | 8866 ft | 286 kts | 327° |
| 2026-05-07 14:51 | 45.98395 | 5.01179 | 9176 ft | 286 kts | 326° |
| 2026-05-07 14:51 | 46.00075 | 4.99618 | 9463 ft | 288 kts | 326° |
| 2026-05-07 14:51 | 46.01765 | 4.98046 | 9752 ft | 289 kts | 326° |
| 2026-05-07 14:52 | 46.03451 | 4.96476 | 10018 ft | 291 kts | 325° |
| 2026-05-07 14:52 | 46.05162 | 4.94881 | 10265 ft | 293 kts | 325° |
| 2026-05-07 14:52 | 46.06882 | 4.93277 | 10496 ft | 296 kts | 326° |
| 2026-05-07 14:52 | 46.08606 | 4.91669 | 10689 ft | 300 kts | 326° |
| 2026-05-07 14:53 | 46.10375 | 4.90015 | 10895 ft | 303 kts | 326° |
| 2026-05-07 14:53 | 46.12166 | 4.88341 | 11094 ft | 306 kts | 326° |
| 2026-05-07 14:53 | 46.13950 | 4.86673 | 11290 ft | 309 kts | 326° |
| 2026-05-07 14:53 | 46.15780 | 4.84960 | 11474 ft | 312 kts | 326° |
| 2026-05-07 14:54 | 46.17588 | 4.83266 | 11644 ft | 315 kts | 326° |
| 2026-05-07 14:54 | 46.19431 | 4.81537 | 11820 ft | 317 kts | 326° |
| 2026-05-07 14:54 | 46.21290 | 4.79793 | 11996 ft | 320 kts | 326° |
| 2026-05-07 14:54 | 46.23165 | 4.78032 | 12170 ft | 322 kts | 326° |
| 2026-05-07 14:55 | 46.25029 | 4.76280 | 12356 ft | 323 kts | 326° |
| 2026-05-07 14:55 | 46.26910 | 4.74510 | 12525 ft | 331 kts | 326° |
| 2026-05-07 14:55 | 46.28886 | 4.72649 | 13209 ft | 341 kts | 326° |
| 2026-05-07 14:55 | 46.30867 | 4.70866 | 14223 ft | 339 kts | 327° |
| 2026-05-07 14:56 | 46.32858 | 4.69098 | 15295 ft | 336 kts | 327° |
| 2026-05-07 14:56 | 46.34830 | 4.67345 | 16262 ft | 335 kts | 327° |
| 2026-05-07 14:56 | 46.36810 | 4.65584 | 17108 ft | 338 kts | 327° |
| 2026-05-07 14:56 | 46.38824 | 4.63790 | 17890 ft | 342 kts | 327° |
| 2026-05-07 14:57 | 46.40853 | 4.61983 | 18650 ft | 346 kts | 327° |
| 2026-05-07 14:57 | 46.42901 | 4.60155 | 19413 ft | 351 kts | 327° |
| 2026-05-07 14:57 | 46.44985 | 4.58296 | 20179 ft | 355 kts | 327° |
| 2026-05-07 14:57 | 46.47084 | 4.56421 | 20953 ft | 358 kts | 326° |
| 2026-05-07 14:58 | 46.49269 | 4.54668 | 21695 ft | 365 kts | 339° |
| 2026-05-07 14:58 | 46.51778 | 4.54172 | 22386 ft | 375 kts | 2° |
| 2026-05-07 14:58 | 46.54380 | 4.54621 | 23109 ft | 380 kts | 5° |
| 2026-05-07 14:58 | 46.57006 | 4.55109 | 23800 ft | 385 kts | 5° |
| 2026-05-07 14:59 | 46.59620 | 4.55595 | 24437 ft | 389 kts | 5° |
| 2026-05-07 14:59 | 46.60994 | 4.55850 | 24778 ft | 391 kts | 4° |
| 2026-05-07 14:59 | 46.63726 | 4.56358 | 25284 ft | 390 kts | 4° |
| 2026-05-07 14:59 | 46.66401 | 4.56856 | 25303 ft | 393 kts | 4° |
| 2026-05-07 15:00 | 46.69138 | 4.57366 | 25309 ft | 394 kts | 4° |
| 2026-05-07 15:00 | 46.71847 | 4.57871 | 25310 ft | 394 kts | 4° |
| 2026-05-07 15:00 | 46.74572 | 4.58380 | 25309 ft | 394 kts | 4° |
| 2026-05-07 15:00 | 46.77301 | 4.58890 | 25308 ft | 393 kts | 5° |
| 2026-05-07 15:01 | 46.80008 | 4.59355 | 25304 ft | 391 kts | 359° |
| 2026-05-07 15:01 | 46.82645 | 4.58735 | 25329 ft | 383 kts | 337° |
| 2026-05-07 15:01 | 46.85095 | 4.57261 | 25314 ft | 382 kts | 334° |
| 2026-05-07 15:01 | 46.87568 | 4.55887 | 25287 ft | 386 kts | 346° |
| 2026-05-07 15:02 | 46.90272 | 4.55874 | 25325 ft | 394 kts | 7° |
| 2026-05-07 15:02 | 46.92950 | 4.56720 | 25313 ft | 396 kts | 10° |
| 2026-05-07 15:02 | 46.95630 | 4.57619 | 25300 ft | 396 kts | 10° |
| 2026-05-07 15:02 | 46.98319 | 4.58526 | 25298 ft | 397 kts | 10° |
| 2026-05-07 15:03 | 47.01015 | 4.59436 | 25300 ft | 397 kts | 10° |
| 2026-05-07 15:03 | 47.03706 | 4.60350 | 25306 ft | 397 kts | 10° |
| 2026-05-07 15:03 | 47.06368 | 4.61251 | 25311 ft | 397 kts | 10° |
| 2026-05-07 15:03 | 47.09065 | 4.62160 | 25317 ft | 397 kts | 10° |
| 2026-05-07 15:04 | 47.11760 | 4.63067 | 25321 ft | 397 kts | 10° |
| 2026-05-07 15:04 | 47.14465 | 4.64042 | 25313 ft | 400 kts | 17° |
| 2026-05-07 15:04 | 47.16835 | 4.66110 | 25342 ft | 406 kts | 41° |
| 2026-05-07 15:04 | 47.18511 | 4.69505 | 25414 ft | 411 kts | 66° |
| 2026-05-07 15:05 | 47.19132 | 4.73567 | 25562 ft | 413 kts | 90° |
| 2026-05-07 15:05 | 47.18963 | 4.77743 | 25744 ft | 415 kts | 88° |
| 2026-05-07 15:05 | 47.19410 | 4.82009 | 25919 ft | 416 kts | 81° |
| 2026-05-07 15:05 | 47.19796 | 4.86199 | 26054 ft | 417 kts | 84° |
| 2026-05-07 15:06 | 47.20091 | 4.90513 | 26026 ft | 417 kts | 85° |
| 2026-05-07 15:06 | 47.20350 | 4.94769 | 26030 ft | 416 kts | 85° |
| 2026-05-07 15:06 | 47.20645 | 4.99025 | 26032 ft | 416 kts | 84° |
| 2026-05-07 15:06 | 47.20937 | 5.03267 | 26036 ft | 415 kts | 84° |
| 2026-05-07 15:07 | 47.21222 | 5.07481 | 26035 ft | 416 kts | 84° |
| 2026-05-07 15:07 | 47.21504 | 5.11659 | 26032 ft | 415 kts | 84° |
| 2026-05-07 15:07 | 47.21785 | 5.15863 | 26026 ft | 414 kts | 84° |
| 2026-05-07 15:07 | 47.22064 | 5.20058 | 26022 ft | 414 kts | 84° |
| 2026-05-07 15:08 | 47.22344 | 5.24285 | 26017 ft | 413 kts | 84° |
| 2026-05-07 15:08 | 47.22619 | 5.28474 | 26017 ft | 414 kts | 84° |
| 2026-05-07 15:08 | 47.22893 | 5.32653 | 26017 ft | 414 kts | 84° |
| 2026-05-07 15:08 | 47.23168 | 5.36880 | 26017 ft | 413 kts | 84° |
| 2026-05-07 15:09 | 47.23437 | 5.41052 | 26013 ft | 414 kts | 84° |
| 2026-05-07 15:09 | 47.23706 | 5.45240 | 26012 ft | 414 kts | 84° |
| 2026-05-07 15:09 | 47.23977 | 5.49474 | 26010 ft | 414 kts | 84° |
| 2026-05-07 15:09 | 47.24245 | 5.53687 | 26010 ft | 414 kts | 84° |
| 2026-05-07 15:10 | 47.24511 | 5.57903 | 26009 ft | 413 kts | 84° |
| 2026-05-07 15:10 | 47.24773 | 5.62077 | 26010 ft | 413 kts | 84° |
| 2026-05-07 15:10 | 47.25037 | 5.66293 | 26009 ft | 413 kts | 85° |
| 2026-05-07 15:10 | 47.25297 | 5.70492 | 26007 ft | 413 kts | 85° |
| 2026-05-07 15:11 | 47.25556 | 5.74687 | 26009 ft | 413 kts | 85° |
| 2026-05-07 15:11 | 47.25816 | 5.78936 | 26008 ft | 413 kts | 85° |
| 2026-05-07 15:11 | 47.26070 | 5.83089 | 26007 ft | 412 kts | 85° |
| 2026-05-07 15:11 | 47.26326 | 5.87330 | 26010 ft | 412 kts | 85° |
| 2026-05-07 15:12 | 47.26579 | 5.91520 | 26010 ft | 412 kts | 85° |
| 2026-05-07 15:12 | 47.26830 | 5.95725 | 26011 ft | 412 kts | 85° |
| 2026-05-07 15:12 | 47.27079 | 5.99902 | 26009 ft | 412 kts | 85° |
| 2026-05-07 15:12 | 47.27327 | 6.04101 | 26012 ft | 412 kts | 85° |
| 2026-05-07 15:13 | 47.27573 | 6.08295 | 26015 ft | 412 kts | 85° |
| 2026-05-07 15:13 | 47.27820 | 6.12531 | 26009 ft | 412 kts | 85° |
| 2026-05-07 15:13 | 47.28063 | 6.16727 | 26012 ft | 413 kts | 85° |
| 2026-05-07 15:13 | 47.28302 | 6.20883 | 26015 ft | 412 kts | 85° |
| 2026-05-07 15:14 | 47.28544 | 6.25103 | 26010 ft | 412 kts | 85° |
| 2026-05-07 15:14 | 47.28783 | 6.29304 | 26012 ft | 413 kts | 85° |
| 2026-05-07 15:14 | 47.29023 | 6.33553 | 26010 ft | 412 kts | 85° |
| 2026-05-07 15:14 | 47.29263 | 6.37828 | 25581 ft | 415 kts | 85° |
| 2026-05-07 15:15 | 47.29496 | 6.42005 | 25123 ft | 414 kts | 85° |
| 2026-05-07 15:15 | 47.29730 | 6.46234 | 24600 ft | 414 kts | 85° |
| 2026-05-07 15:15 | 47.29962 | 6.50451 | 24060 ft | 413 kts | 85° |
| 2026-05-07 15:15 | 47.30192 | 6.54668 | 23517 ft | 413 kts | 85° |
| 2026-05-07 15:16 | 47.30417 | 6.58816 | 22979 ft | 411 kts | 85° |
| 2026-05-07 15:16 | 47.30644 | 6.63016 | 22428 ft | 408 kts | 85° |
| 2026-05-07 15:16 | 47.30864 | 6.67124 | 21890 ft | 406 kts | 86° |
| 2026-05-07 15:16 | 47.31083 | 6.71246 | 21344 ft | 404 kts | 86° |
| 2026-05-07 15:17 | 47.31301 | 6.75375 | 20733 ft | 404 kts | 86° |
| 2026-05-07 15:17 | 47.31517 | 6.79510 | 19823 ft | 408 kts | 86° |
| 2026-05-07 15:17 | 47.31732 | 6.83633 | 18923 ft | 404 kts | 86° |
| 2026-05-07 15:17 | 47.31941 | 6.87673 | 18049 ft | 401 kts | 86° |
| 2026-05-07 15:18 | 47.32149 | 6.91720 | 17182 ft | 397 kts | 86° |
| 2026-05-07 15:18 | 47.32353 | 6.95727 | 16317 ft | 393 kts | 86° |
| 2026-05-07 15:18 | 47.32555 | 6.99717 | 15455 ft | 389 kts | 86° |
| 2026-05-07 15:18 | 47.32752 | 7.03629 | 14587 ft | 386 kts | 86° |
| 2026-05-07 15:19 | 47.32948 | 7.07539 | 13730 ft | 382 kts | 86° |
| 2026-05-07 15:19 | 47.33140 | 7.11418 | 12864 ft | 378 kts | 86° |
| 2026-05-07 15:19 | 47.33328 | 7.15237 | 12028 ft | 374 kts | 86° |
| 2026-05-07 15:19 | 47.33511 | 7.18958 | 11530 ft | 361 kts | 86° |
| 2026-05-07 15:20 | 47.33688 | 7.22597 | 11051 ft | 349 kts | 86° |
| 2026-05-07 15:20 | 47.33856 | 7.26089 | 10592 ft | 338 kts | 87° |
| 2026-05-07 15:20 | 47.34020 | 7.29496 | 10118 ft | 329 kts | 87° |
| 2026-05-07 15:20 | 47.34235 | 7.32774 | 9657 ft | 321 kts | 81° |
| 2026-05-07 15:21 | 47.34634 | 7.35982 | 9196 ft | 314 kts | 80° |
| 2026-05-07 15:21 | 47.35023 | 7.39105 | 8747 ft | 308 kts | 80° |
| 2026-05-07 15:21 | 47.35397 | 7.42160 | 8299 ft | 302 kts | 80° |
| 2026-05-07 15:21 | 47.35761 | 7.45187 | 7840 ft | 296 kts | 79° |
| 2026-05-07 15:22 | 47.36447 | 7.47996 | 7374 ft | 291 kts | 64° |
| 2026-05-07 15:22 | 47.37302 | 7.50641 | 6928 ft | 286 kts | 65° |
| 2026-05-07 15:22 | 47.38136 | 7.53289 | 6474 ft | 282 kts | 64° |
| 2026-05-07 15:22 | 47.38967 | 7.55868 | 6111 ft | 275 kts | 64° |
| 2026-05-07 15:23 | 47.39759 | 7.58339 | 6020 ft | 258 kts | 64° |
| 2026-05-07 15:23 | 47.40503 | 7.60661 | 5912 ft | 248 kts | 64° |
| 2026-05-07 15:23 | 47.41240 | 7.62948 | 5810 ft | 239 kts | 64° |
| 2026-05-07 15:23 | 47.42116 | 7.64874 | 5859 ft | 223 kts | 39° |
| 2026-05-07 15:24 | 47.43525 | 7.65729 | 5648 ft | 221 kts | 5° |
| 2026-05-07 15:24 | 47.45097 | 7.65432 | 5081 ft | 237 kts | 341° |
| 2026-05-07 15:24 | 47.46589 | 7.64339 | 4493 ft | 248 kts | 327° |
| 2026-05-07 15:24 | 47.47963 | 7.62760 | 3992 ft | 251 kts | 319° |
| 2026-05-07 15:25 | 47.49229 | 7.61005 | 3460 ft | 255 kts | 317° |
| 2026-05-07 15:25 | 47.50543 | 7.59256 | 3123 ft | 248 kts | 322° |
| 2026-05-07 15:25 | 47.51897 | 7.57803 | 2986 ft | 235 kts | 331° |
| 2026-05-07 15:25 | 47.53325 | 7.56850 | 2658 ft | 219 kts | 339° |
| 2026-05-07 15:26 | 47.54670 | 7.55969 | 2237 ft | 204 kts | 335° |
| 2026-05-07 15:26 | 47.55875 | 7.55057 | 1917 ft | 186 kts | 335° |
| 2026-05-07 15:26 | 47.56998 | 7.54285 | 1580 ft | 173 kts | 338° |
| 2026-05-07 15:26 | 47.58050 | 7.53579 | 1311 ft | 156 kts | 336° |
| 2026-05-07 15:27 | 47.58988 | 7.52914 | 1045 ft | 141 kts | 337° |
| 2026-05-07 15:27 | 47.59844 | 7.52311 | 892 ft | 130 kts | 336° |
| 2026-05-07 15:27 | 47.60535 | 7.51846 | 881 ft | 81 kts | 336° |
| 2026-05-07 15:27 | 47.60896 | 7.51598 | 876 ft | 37 kts | 336° |
| 2026-05-07 15:28 | 47.61038 | 7.51555 | 874 ft | 15 kts | 50° |
| 2026-05-07 15:28 | 47.61082 | 7.51703 | 874 ft | 15 kts | 78° |
| 2026-05-07 15:28 | 47.61018 | 7.51805 | 875 ft | 14 kts | 154° |
| 2026-05-07 15:28 | 47.60931 | 7.51868 | 876 ft | 13 kts | 155° |
| 2026-05-07 15:29 | 47.60846 | 7.51926 | 877 ft | 13 kts | 155° |
| 2026-05-07 15:29 | 47.60755 | 7.51989 | 879 ft | 16 kts | 155° |
| 2026-05-07 15:29 | 47.60630 | 7.52075 | 880 ft | 21 kts | 156° |
| 2026-05-07 15:29 | 47.60501 | 7.52166 | 881 ft | 20 kts | 155° |
| 2026-05-07 15:30 | 47.60372 | 7.52255 | 883 ft | 20 kts | 155° |
| 2026-05-07 15:30 | 47.60244 | 7.52344 | 884 ft | 20 kts | 154° |
| 2026-05-07 15:30 | 47.60190 | 7.52442 | 884 ft | 11 kts | 95° |
| 2026-05-07 15:30 | 47.60202 | 7.52518 | 884 ft | 4 kts | 69° |
| 2026-05-07 15:31 | 47.60207 | 7.52535 | 884 ft | 0 kts | 66° |
| 2026-05-07 15:48 | 47.60207 | 7.52536 | 884 ft | 0 kts | 72° |
| 2026-05-07 15:48 | 47.60200 | 7.52543 | 884 ft | 3 kts | 179° |
| 2026-05-07 15:48 | 47.60154 | 7.52509 | 884 ft | 12 kts | 180° |
| 2026-05-07 15:48 | 47.60061 | 7.52564 | 885 ft | 11 kts | 155° |
| 2026-05-07 15:49 | 47.60009 | 7.52538 | 885 ft | 7 kts | 229° |
| 2026-05-07 15:49 | 47.59956 | 7.52544 | 885 ft | 10 kts | 160° |
| 2026-05-07 15:49 | 47.59864 | 7.52607 | 886 ft | 18 kts | 155° |
| 2026-05-07 15:49 | 47.59744 | 7.52691 | 887 ft | 18 kts | 155° |
| 2026-05-07 15:50 | 47.59627 | 7.52772 | 888 ft | 18 kts | 156° |
| 2026-05-07 15:50 | 47.59511 | 7.52852 | 888 ft | 18 kts | 154° |
| 2026-05-07 15:50 | 47.59397 | 7.52931 | 889 ft | 17 kts | 155° |
| 2026-05-07 15:50 | 47.59286 | 7.53008 | 890 ft | 17 kts | 155° |